Ovalle, Chile
Current Conditions -  °F | °C
As of 10:00 PM on Friday 28 Nov 2014 (Local Time) from SCSE Reporting Station
Few Clouds Few Clouds  
Wind Chill: 55°   Ceiling: Unl
Heat Index: 55°   Visibility: 6mi
Dew Point: 50°   Wind: 5mph
Humidity: 82%   Direction: 260°W
Pressure: 29.91"   Gusts: NA
Location:  30.59°S, 71.2°W
Report Text: SCSE 290200Z 26004KT 9999 FEW015 13/10 Q1013
Loading
Personal Weather Stations






























Interactive Weather Map New forecast layout! Learn more

10-Day Weather Forecast

Advertisements
Track Severe Weather on mobile